Time;durP1;ratioP1;P1;durP2;ratioP2;P2;SDS_P1;SDS_P2;PMS_P1;PMS_P2;Temp;Humidity;BMP_temperature;BMP_pressure;BME280_temperature;BME280_humidity;BME280_pressure;Samples;Min_cycle;Max_cycle;Signal;HPM_P1;HPM_P2
2022/08/19 00:00:18;;;;;;;28.17;23.97;;;;;;;;;;5006156;28;20184;-85
2022/08/19 00:03:22;;;;;;;27.20;24.40;;;;;;;;;;5017459;28;20188;-85
2022/08/19 00:06:28;;;;;;;27.60;24.47;;;;;;;;;;5004901;28;20236;-85
2022/08/19 00:09:32;;;;;;;26.87;23.93;;;;;;;;;;4994102;28;20184;-84
2022/08/19 00:12:37;;;;;;;27.93;24.50;;;;;;;;;;5016095;28;20240;-84
2022/08/19 00:15:44;;;;;;;28.00;24.83;;;;;;;;;;5005335;28;20224;-85
2022/08/19 00:18:48;;;;;;;27.73;24.83;;;;;;;;;;5006442;28;20675;-84
2022/08/19 00:21:53;;;;;;;28.00;25.00;;;;;;;;;;5005596;28;20204;-86
2022/08/19 00:24:57;;;;;;;29.30;24.17;;;;;;;;;;5005507;28;20185;-84
2022/08/19 00:28:03;;;;;;;27.00;24.10;;;;;;;;;;4994373;28;20188;-85
2022/08/19 00:31:08;;;;;;;27.87;24.77;;;;;;;;;;5005610;28;20536;-85
2022/08/19 00:34:13;;;;;;;27.57;24.00;;;;;;;;;;5005000;28;20703;-85
2022/08/19 00:37:19;;;;;;;26.13;23.33;;;;;;;;;;5016341;28;20185;-84
2022/08/19 00:40:23;;;;;;;26.27;23.37;;;;;;;;;;5005199;28;20185;-85
2022/08/19 00:43:27;;;;;;;26.60;23.53;;;;;;;;;;5005345;28;20184;-85
2022/08/19 00:46:33;;;;;;;25.00;21.47;;;;;;;;;;5004944;28;20220;-86
2022/08/19 00:49:43;;;;;;;24.87;22.30;;;;;;;;;;5019060;28;20184;-85
2022/08/19 00:52:50;;;;;;;24.40;21.77;;;;;;;;;;5009103;28;20221;-85
2022/08/19 00:55:57;;;;;;;26.27;22.90;;;;;;;;;;5008397;28;20228;-85
2022/08/19 00:59:08;;;;;;;24.93;22.33;;;;;;;;;;5014160;28;20180;-84
2022/08/19 01:02:15;;;;;;;25.00;21.10;;;;;;;;;;5018126;28;20188;-84
2022/08/19 01:05:23;;;;;;;24.67;22.07;;;;;;;;;;5017474;28;20228;-84
2022/08/19 01:08:28;;;;;;;26.90;24.13;;;;;;;;;;5006851;28;20203;-84
2022/08/19 01:11:35;;;;;;;24.97;22.37;;;;;;;;;;5006254;28;20543;-84
2022/08/19 01:14:40;;;;;;;26.50;23.23;;;;;;;;;;5016807;28;20212;-84
2022/08/19 01:17:46;;;;;;;25.30;22.70;;;;;;;;;;5017449;28;20683;-84
2022/08/19 01:20:51;;;;;;;25.57;22.83;;;;;;;;;;5028685;28;20188;-84
2022/08/19 01:23:55;;;;;;;24.50;21.83;;;;;;;;;;5015650;28;20196;-84
2022/08/19 01:26:59;;;;;;;24.43;21.93;;;;;;;;;;5015464;28;20219;-84
2022/08/19 01:30:05;;;;;;;24.33;21.83;;;;;;;;;;5015286;28;20196;-84
2022/08/19 01:33:09;;;;;;;23.93;21.33;;;;;;;;;;5003508;28;20568;-84
2022/08/19 01:36:22;;;;;;;22.40;19.70;;;;;;;;;;5025923;28;20576;-84
2022/08/19 01:39:26;;;;;;;20.80;18.60;;;;;;;;;;5003085;28;20184;-85
2022/08/19 01:42:31;;;;;;;22.40;20.00;;;;;;;;;;5014639;28;20184;-85
2022/08/19 01:45:37;;;;;;;20.17;18.07;;;;;;;;;;5014497;28;20216;-84
2022/08/19 01:48:43;;;;;;;23.17;19.27;;;;;;;;;;5003324;28;20188;-84
2022/08/19 01:51:48;;;;;;;21.77;19.57;;;;;;;;;;4984043;28;20193;-84
2022/08/19 01:54:52;;;;;;;18.87;16.90;;;;;;;;;;4994690;28;20221;-85
2022/08/19 01:58:01;;;;;;;21.80;19.50;;;;;;;;;;4995219;28;20208;-84
2022/08/19 02:01:06;;;;;;;18.30;16.40;;;;;;;;;;4981837;28;20189;-84
2022/08/19 02:04:11;;;;;;;19.97;17.93;;;;;;;;;;4994094;28;20186;-84
2022/08/19 02:07:19;;;;;;;20.93;18.83;;;;;;;;;;4993554;28;20240;-84
2022/08/19 02:10:24;;;;;;;21.20;18.93;;;;;;;;;;4982802;28;20660;-84
2022/08/19 02:13:28;;;;;;;19.77;16.60;;;;;;;;;;4981597;28;20217;-84
2022/08/19 02:16:33;;;;;;;19.23;17.23;;;;;;;;;;5005101;28;20229;-84
2022/08/19 02:19:37;;;;;;;19.10;17.03;;;;;;;;;;4993844;28;20185;-84
2022/08/19 02:22:42;;;;;;;20.93;18.00;;;;;;;;;;4993952;28;20193;-84
2022/08/19 02:25:48;;;;;;;18.60;16.73;;;;;;;;;;4993451;28;20221;-84
2022/08/19 02:28:54;;;;;;;18.87;16.93;;;;;;;;;;4993250;28;20189;-84
2022/08/19 02:31:58;;;;;;;19.07;16.23;;;;;;;;;;4996345;28;20196;-84
2022/08/19 02:35:03;;;;;;;19.07;16.60;;;;;;;;;;4992863;28;20225;-84
2022/08/19 02:38:25;;;;;;;18.70;16.80;;;;;;;;;;4992279;28;20198;-84
2022/08/19 02:41:31;;;;;;;18.03;16.07;;;;;;;;;;4993546;28;20189;-84
2022/08/19 02:44:36;;;;;;;17.80;16.00;;;;;;;;;;4993036;28;20262;-84
2022/08/19 02:47:41;;;;;;;18.27;16.37;;;;;;;;;;4982012;28;20185;-84
2022/08/19 02:50:46;;;;;;;18.90;17.00;;;;;;;;;;4992826;28;20553;-84
2022/08/19 02:53:51;;;;;;;19.30;16.63;;;;;;;;;;5018606;28;20220;-84
2022/08/19 02:56:55;;;;;;;19.23;17.00;;;;;;;;;;4991737;28;20224;-85
2022/08/19 02:59:59;;;;;;;19.90;15.70;;;;;;;;;;4994348;28;20331;-86
2022/08/19 03:03:03;;;;;;;14.90;12.70;;;;;;;;;;4994517;28;20192;-85
2022/08/19 03:06:13;;;;;;;17.60;15.30;;;;;;;;;;5007182;23;20238;-85
2022/08/19 03:09:19;;;;;;;14.87;13.37;;;;;;;;;;4945185;29;20210;-85
2022/08/19 03:12:23;;;;;;;18.47;12.80;;;;;;;;;;4945422;29;20645;-85
2022/08/19 03:15:28;;;;;;;14.30;12.90;;;;;;;;;;4944984;29;20223;-85
2022/08/19 03:18:31;;;;;;;14.97;13.37;;;;;;;;;;4951999;28;20217;-85
2022/08/19 03:21:37;;;;;;;13.37;12.07;;;;;;;;;;4964158;28;20282;-85
2022/08/19 03:24:41;;;;;;;15.53;12.97;;;;;;;;;;4975674;28;20210;-85
2022/08/19 03:27:48;;;;;;;13.30;11.90;;;;;;;;;;4964342;28;20545;-85
2022/08/19 03:31:06;;;;;;;12.27;10.87;;;;;;;;;;4975003;28;20221;-85
2022/08/19 03:34:17;;;;;;;13.37;12.03;;;;;;;;;;4963956;28;20218;-85
2022/08/19 03:37:22;;;;;;;16.20;13.77;;;;;;;;;;4963669;28;20712;-85
2022/08/19 03:40:26;;;;;;;14.50;12.73;;;;;;;;;;4963688;28;20202;-84
2022/08/19 03:43:31;;;;;;;17.63;14.07;;;;;;;;;;4963491;28;20202;-84
2022/08/19 03:46:36;;;;;;;18.93;15.27;;;;;;;;;;4956887;28;20298;-85
2022/08/19 03:49:40;;;;;;;17.77;14.33;;;;;;;;;;4963429;28;20185;-85
2022/08/19 03:52:48;;;;;;;17.00;15.20;;;;;;;;;;4974476;28;20565;-85
2022/08/19 03:55:54;;;;;;;22.20;15.33;;;;;;;;;;4933062;29;20230;-85
2022/08/19 03:58:59;;;;;;;17.60;14.40;;;;;;;;;;4966302;28;20677;-85
2022/08/19 04:02:10;;;;;;;20.93;18.20;;;;;;;;;;4956262;29;20203;-86
2022/08/19 04:05:15;;;;;;;21.40;17.87;;;;;;;;;;4933220;29;20202;-84
2022/08/19 04:08:22;;;;;;;18.47;15.80;;;;;;;;;;4932976;29;20202;-86
2022/08/19 04:11:31;;;;;;;21.07;17.10;;;;;;;;;;4955320;29;20220;-86
2022/08/19 04:14:35;;;;;;;19.67;16.57;;;;;;;;;;4943981;29;20219;-85
2022/08/19 04:17:40;;;;;;;20.17;16.57;;;;;;;;;;4944396;29;20198;-86
2022/08/19 04:20:46;;;;;;;22.80;16.23;;;;;;;;;;4944590;29;20199;-85
2022/08/19 04:23:50;;;;;;;19.37;16.73;;;;;;;;;;4955215;28;20183;-85
2022/08/19 04:26:55;;;;;;;19.97;16.67;;;;;;;;;;4944043;29;20218;-86
2022/08/19 04:29:59;;;;;;;18.17;14.57;;;;;;;;;;4944498;29;20637;-85
2022/08/19 04:33:04;;;;;;;16.30;14.57;;;;;;;;;;4933360;29;20656;-85
2022/08/19 04:36:16;;;;;;;17.97;15.27;;;;;;;;;;4944102;29;20222;-85
2022/08/19 04:42:38;;;;;;;18.83;15.67;;;;;;;;;;4933124;29;20236;-86
2022/08/19 04:42:48;;;;;;;16.03;12.90;;;;;;;;;;4973187;28;20217;-85
2022/08/19 04:45:52;;;;;;;17.47;13.57;;;;;;;;;;4962787;28;20700;-85
2022/08/19 04:48:57;;;;;;;16.23;14.20;;;;;;;;;;4963239;28;20186;-85
2022/08/19 04:52:01;;;;;;;17.17;15.10;;;;;;;;;;4974590;28;20194;-86
2022/08/19 04:55:13;;;;;;;20.60;14.00;;;;;;;;;;4962794;28;20229;-86
2022/08/19 04:58:20;;;;;;;18.43;15.17;;;;;;;;;;4967303;28;20533;-85
2022/08/19 05:01:28;;;;;;;18.87;15.80;;;;;;;;;;4966879;28;20190;-85
2022/08/19 05:04:33;;;;;;;19.80;13.87;;;;;;;;;;4961023;28;20206;-84
2022/08/19 05:07:37;;;;;;;16.83;13.30;;;;;;;;;;4949442;29;20234;-84
2022/08/19 05:10:41;;;;;;;16.97;15.13;;;;;;;;;;4949461;28;20268;-84
2022/08/19 05:13:47;;;;;;;15.13;12.80;;;;;;;;;;4949304;29;20195;-84
2022/08/19 05:16:51;;;;;;;18.63;16.40;;;;;;;;;;4950890;29;20252;-84
2022/08/19 05:23:19;;;;;;;19.13;16.27;;;;;;;;;;4981561;28;20198;-85
2022/08/19 05:26:28;;;;;;;23.20;19.43;;;;;;;;;;4958648;28;20234;-84
2022/08/19 05:29:34;;;;;;;21.53;17.40;;;;;;;;;;4955107;28;20263;-85
2022/08/19 05:32:39;;;;;;;18.50;16.53;;;;;;;;;;4954817;28;20194;-84
2022/08/19 05:35:43;;;;;;;20.23;17.80;;;;;;;;;;4957351;28;20241;-85
2022/08/19 05:38:49;;;;;;;19.40;17.13;;;;;;;;;;4951540;29;20210;-84
2022/08/19 05:41:58;;;;;;;23.87;19.50;;;;;;;;;;4951924;29;20206;-85
2022/08/19 05:45:04;;;;;;;21.77;18.23;;;;;;;;;;4941752;29;20191;-84
2022/08/19 05:48:12;;;;;;;19.90;17.60;;;;;;;;;;4940889;29;20199;-84
2022/08/19 05:51:17;;;;;;;20.97;18.73;;;;;;;;;;4951301;29;20191;-84
2022/08/19 05:54:22;;;;;;;23.67;18.97;;;;;;;;;;4960969;29;20250;-84
2022/08/19 05:57:28;;;;;;;25.10;18.10;;;;;;;;;;4939915;29;20717;-84
2022/08/19 06:00:33;;;;;;;22.00;19.67;;;;;;;;;;4940116;29;20554;-85
2022/08/19 06:03:38;;;;;;;23.57;20.13;;;;;;;;;;4951411;29;20190;-85
2022/08/19 06:06:42;;;;;;;25.73;20.80;;;;;;;;;;4951063;29;20582;-85
2022/08/19 06:09:46;;;;;;;23.60;19.13;;;;;;;;;;4962990;29;20196;-86
2022/08/19 06:12:52;;;;;;;24.27;19.30;;;;;;;;;;4952213;29;20187;-85
2022/08/19 06:16:00;;;;;;;26.93;21.17;;;;;;;;;;4940213;29;20728;-84
2022/08/19 06:19:12;;;;;;;24.93;21.17;;;;;;;;;;4955625;29;20194;-85
2022/08/19 06:22:17;;;;;;;61.50;23.50;;;;;;;;;;4943166;29;20183;-85
2022/08/19 06:25:21;;;;;;;63.03;24.93;;;;;;;;;;4977393;28;20179;-85
2022/08/19 06:28:26;;;;;;;57.47;24.87;;;;;;;;;;4958197;29;20190;-85
2022/08/19 06:31:33;;;;;;;70.97;25.73;;;;;;;;;;4953115;29;20190;-85
2022/08/19 06:34:37;;;;;;;24.37;20.30;;;;;;;;;;4952172;29;20591;-85
2022/08/19 06:37:42;;;;;;;29.13;21.63;;;;;;;;;;4964141;29;20191;-85
2022/08/19 06:40:46;;;;;;;28.77;22.10;;;;;;;;;;4950979;29;20183;-85
2022/08/19 06:43:52;;;;;;;27.20;21.53;;;;;;;;;;4951876;29;20187;-85
2022/08/19 06:46:56;;;;;;;27.73;22.50;;;;;;;;;;4966224;28;20230;-85
2022/08/19 06:50:02;;;;;;;26.60;22.40;;;;;;;;;;4983554;28;20201;-85
2022/08/19 06:53:07;;;;;;;27.70;22.00;;;;;;;;;;4961384;28;20190;-85
2022/08/19 06:56:12;;;;;;;28.43;22.10;;;;;;;;;;4960880;28;20311;-85
2022/08/19 06:59:19;;;;;;;28.10;22.47;;;;;;;;;;4982628;28;20654;-85
2022/08/19 07:02:26;;;;;;;24.43;21.80;;;;;;;;;;4960964;28;20194;-85
2022/08/19 07:05:30;;;;;;;28.33;21.90;;;;;;;;;;4972652;28;20198;-85
2022/08/19 07:08:40;;;;;;;24.53;21.53;;;;;;;;;;4956765;28;20653;-85
2022/08/19 07:11:47;;;;;;;25.90;20.40;;;;;;;;;;4960414;28;20226;-85
2022/08/19 07:14:50;;;;;;;28.57;23.20;;;;;;;;;;4958170;28;20578;-85
2022/08/19 07:17:55;;;;;;;26.53;22.50;;;;;;;;;;4956600;29;20191;-85
2022/08/19 07:21:24;;;;;;;29.67;23.37;;;;;;;;;;4945065;29;20191;-84
2022/08/19 07:24:29;;;;;;;27.17;23.87;;;;;;;;;;4956149;29;20199;-85
2022/08/19 07:27:34;;;;;;;28.47;22.57;;;;;;;;;;4956749;29;20226;-85
2022/08/19 07:30:38;;;;;;;27.87;24.47;;;;;;;;;;4956529;29;20194;-85
2022/08/19 07:33:42;;;;;;;31.43;25.83;;;;;;;;;;4934281;29;20202;-85
2022/08/19 07:36:47;;;;;;;30.17;25.27;;;;;;;;;;4944742;29;20236;-85
2022/08/19 07:39:51;;;;;;;28.53;24.13;;;;;;;;;;4953236;29;20218;-84
2022/08/19 07:42:55;;;;;;;27.90;24.03;;;;;;;;;;4955748;29;20195;-84
2022/08/19 07:45:59;;;;;;;26.13;23.03;;;;;;;;;;4944990;29;20222;-85
2022/08/19 07:49:06;;;;;;;30.10;26.27;;;;;;;;;;4955748;29;20206;-85
2022/08/19 07:52:10;;;;;;;29.17;25.47;;;;;;;;;;4966716;28;20190;-85
2022/08/19 07:55:14;;;;;;;29.73;25.23;;;;;;;;;;4955331;29;20222;-85
2022/08/19 07:58:22;;;;;;;30.27;25.47;;;;;;;;;;4944280;29;20210;-85
2022/08/19 08:01:27;;;;;;;30.10;24.50;;;;;;;;;;4966342;28;20187;-85
2022/08/19 08:11:19;;;;;;;37.50;28.47;;;;;;;;;;4966978;28;20630;-85
2022/08/19 08:14:27;;;;;;;35.17;28.00;;;;;;;;;;4964170;28;20194;-85
2022/08/19 08:17:31;;;;;;;39.40;30.10;;;;;;;;;;4983066;28;20581;-85
2022/08/19 08:20:36;;;;;;;33.47;24.83;;;;;;;;;;4983597;28;20200;-85
2022/08/19 08:23:40;;;;;;;32.17;26.10;;;;;;;;;;4972671;28;20205;-85
2022/08/19 08:26:44;;;;;;;32.17;26.00;;;;;;;;;;4982768;28;20747;-85
2022/08/19 08:29:48;;;;;;;30.63;27.20;;;;;;;;;;4982910;28;20189;-85
2022/08/19 08:32:52;;;;;;;33.20;27.83;;;;;;;;;;4994432;28;20189;-85
2022/08/19 08:35:56;;;;;;;31.53;26.90;;;;;;;;;;4982961;28;20244;-85
2022/08/19 08:39:01;;;;;;;32.50;26.83;;;;;;;;;;4944319;29;20194;-85
2022/08/19 08:42:40;;;;;;;32.13;28.50;;;;;;;;;;4944264;29;20190;-85
2022/08/19 08:46:00;;;;;;;34.03;29.07;;;;;;;;;;4933182;29;20701;-85
2022/08/19 08:49:05;;;;;;;29.90;26.67;;;;;;;;;;4933694;29;20210;-85
2022/08/19 08:52:21;;;;;;;29.67;26.47;;;;;;;;;;4933072;29;20526;-85
2022/08/19 08:55:28;;;;;;;29.93;26.73;;;;;;;;;;4943763;29;20234;-85
2022/08/19 08:59:01;;;;;;;28.60;25.57;;;;;;;;;;4944268;29;20202;-85
2022/08/19 09:02:05;;;;;;;26.63;23.50;;;;;;;;;;4943689;29;20195;-85
2022/08/19 09:05:12;;;;;;;25.80;23.03;;;;;;;;;;4954179;29;20187;-85
2022/08/19 09:08:40;;;;;;;25.03;22.43;;;;;;;;;;4944161;29;20183;-85
2022/08/19 09:11:56;;;;;;;25.73;23.00;;;;;;;;;;4936467;29;20193;-85
2022/08/19 09:15:07;;;;;;;27.03;23.40;;;;;;;;;;4936750;29;20195;-85
2022/08/19 09:18:11;;;;;;;26.63;23.83;;;;;;;;;;4936897;29;20191;-85
2022/08/19 09:21:15;;;;;;;26.67;23.60;;;;;;;;;;4947927;29;20563;-85
2022/08/19 09:24:19;;;;;;;25.43;22.83;;;;;;;;;;4970222;28;20190;-85
2022/08/19 09:27:25;;;;;;;31.27;24.60;;;;;;;;;;4959732;29;20705;-85
2022/08/19 09:30:39;;;;;;;27.10;22.10;;;;;;;;;;4959732;29;20658;-85
2022/08/19 09:33:43;;;;;;;25.10;22.40;;;;;;;;;;4948740;29;20190;-85
2022/08/19 09:36:52;;;;;;;25.20;22.50;;;;;;;;;;4948329;29;20242;-85
2022/08/19 09:39:56;;;;;;;29.10;24.17;;;;;;;;;;4956004;28;20218;-86
2022/08/19 09:43:02;;;;;;;29.40;22.67;;;;;;;;;;4955827;28;20194;-85
2022/08/19 09:46:08;;;;;;;26.43;22.60;;;;;;;;;;4966492;28;20705;-85
2022/08/19 09:49:13;;;;;;;24.03;21.50;;;;;;;;;;4978703;28;20190;-85
2022/08/19 09:52:17;;;;;;;25.63;21.60;;;;;;;;;;4956207;28;20545;-85
2022/08/19 09:55:21;;;;;;;24.00;21.30;;;;;;;;;;4967067;28;20190;-85
2022/08/19 09:58:27;;;;;;;21.60;19.43;;;;;;;;;;4966719;28;20195;-86
2022/08/19 10:01:32;;;;;;;20.23;18.13;;;;;;;;;;4967210;28;20315;-86
2022/08/19 10:08:01;;;;;;;20.00;17.90;;;;;;;;;;4981838;28;20217;-86
2022/08/19 10:11:05;;;;;;;19.53;17.40;;;;;;;;;;4956298;28;20214;-86
2022/08/19 10:14:09;;;;;;;20.13;18.10;;;;;;;;;;4967671;28;20212;-86
2022/08/19 10:17:14;;;;;;;21.43;19.27;;;;;;;;;;4966904;28;20241;-85
2022/08/19 10:20:18;;;;;;;25.40;22.80;;;;;;;;;;4955778;28;20552;-85
2022/08/19 10:23:22;;;;;;;23.57;21.07;;;;;;;;;;4955874;28;20196;-85
2022/08/19 10:26:29;;;;;;;22.37;19.93;;;;;;;;;;4967134;28;20223;-85
2022/08/19 10:29:34;;;;;;;22.40;20.10;;;;;;;;;;4956365;28;20188;-85
2022/08/19 10:32:38;;;;;;;23.30;20.67;;;;;;;;;;4966899;28;20189;-85
2022/08/19 10:35:42;;;;;;;26.83;23.93;;;;;;;;;;4966881;28;20587;-85
2022/08/19 10:38:49;;;;;;;24.83;21.00;;;;;;;;;;4955771;28;20191;-85
2022/08/19 10:41:53;;;;;;;23.43;20.93;;;;;;;;;;4956285;28;20186;-85
2022/08/19 10:44:57;;;;;;;27.43;23.40;;;;;;;;;;4956861;28;20194;-85
2022/08/19 10:48:01;;;;;;;29.17;22.37;;;;;;;;;;4955358;28;20644;-86
2022/08/19 10:56:50;;;;;;;31.67;24.63;;;;;;;;;;4977340;28;20194;-86
2022/08/19 10:57:52;;;;;;;32.17;25.33;;;;;;;;;;4976460;28;20214;-84
2022/08/19 11:00:58;;;;;;;22.80;20.30;;;;;;;;;;4964739;28;20190;-87
2022/08/19 11:04:04;;;;;;;30.47;24.37;;;;;;;;;;4965201;28;20194;-87
2022/08/19 11:07:11;;;;;;;27.67;21.90;;;;;;;;;;4953639;28;20233;-87
2022/08/19 11:10:18;;;;;;;34.40;22.40;;;;;;;;;;4954279;28;20603;-87
2022/08/19 11:13:23;;;;;;;29.23;21.80;;;;;;;;;;4968377;28;20197;-87
2022/08/19 11:16:29;;;;;;;27.57;20.90;;;;;;;;;;4983873;28;20229;-88
2022/08/19 11:19:35;;;;;;;23.00;19.53;;;;;;;;;;4983937;28;20190;-88
2022/08/19 11:22:40;;;;;;;25.30;19.10;;;;;;;;;;4983989;28;20190;-88
2022/08/19 11:25:45;;;;;;;18.53;16.17;;;;;;;;;;4983815;28;20723;-89
2022/08/19 11:28:54;;;;;;;24.90;17.57;;;;;;;;;;4972737;28;20193;-88
2022/08/19 11:31:59;;;;;;;23.83;17.73;;;;;;;;;;4944920;29;20681;-89
2022/08/19 11:35:04;;;;;;;17.37;13.27;;;;;;;;;;4933953;29;20202;-88
2022/08/19 11:38:07;;;;;;;12.33;10.23;;;;;;;;;;4966554;28;20202;-89
2022/08/19 11:41:12;;;;;;;12.23;10.60;;;;;;;;;;4948595;28;20210;-89
2022/08/19 11:44:16;;;;;;;14.70;10.67;;;;;;;;;;4951207;28;20214;-89
2022/08/19 11:47:21;;;;;;;12.93;10.33;;;;;;;;;;4953078;28;20217;-89
2022/08/19 11:50:26;;;;;;;9.70;8.70;;;;;;;;;;4952795;28;20210;-89
2022/08/19 11:53:30;;;;;;;9.80;8.80;;;;;;;;;;4952947;28;20183;-88
2022/08/19 11:56:37;;;;;;;10.07;8.60;;;;;;;;;;4952542;28;20226;-89
2022/08/19 11:59:41;;;;;;;9.73;8.70;;;;;;;;;;4952592;28;20551;-89
2022/08/19 12:02:45;;;;;;;8.80;7.90;;;;;;;;;;4944548;29;20623;-89
2022/08/19 12:05:50;;;;;;;9.00;5.17;;;;;;;;;;4933305;29;20230;-89
2022/08/19 12:08:59;;;;;;;4.83;4.07;;;;;;;;;;4955535;29;20187;-89
2022/08/19 12:12:03;;;;;;;9.83;4.63;;;;;;;;;;4944439;29;20183;-89
2022/08/19 12:15:11;;;;;;;5.90;3.80;;;;;;;;;;4944230;29;20531;-89
2022/08/19 12:18:15;;;;;;;4.30;3.40;;;;;;;;;;4933645;29;20184;-89
2022/08/19 12:21:23;;;;;;;3.70;3.30;;;;;;;;;;4944596;29;20187;-89
2022/08/19 12:24:31;;;;;;;3.43;3.13;;;;;;;;;;4933710;29;20203;-89
2022/08/19 12:27:36;;;;;;;3.20;2.53;;;;;;;;;;4933135;29;20211;-88
2022/08/19 12:30:39;;;;;;;4.30;2.83;;;;;;;;;;4942391;28;20202;-89
2022/08/19 12:33:44;;;;;;;4.20;3.80;;;;;;;;;;4952187;28;20183;-89
2022/08/19 12:36:49;;;;;;;4.97;4.47;;;;;;;;;;4962959;28;20238;-89
2022/08/19 12:39:52;;;;;;;5.67;5.00;;;;;;;;;;4963389;28;20224;-88
2022/08/19 12:42:57;;;;;;;6.27;5.00;;;;;;;;;;4962989;28;20179;-89
2022/08/19 12:46:04;;;;;;;4.30;3.87;;;;;;;;;;4955149;28;20218;-89
2022/08/19 12:49:08;;;;;;;4.83;4.03;;;;;;;;;;4956610;28;20187;-89
2022/08/19 12:52:15;;;;;;;4.37;3.83;;;;;;;;;;4956933;28;20515;-88
2022/08/19 12:55:19;;;;;;;3.10;2.80;;;;;;;;;;4956434;28;20524;-88
2022/08/19 12:58:24;;;;;;;3.53;2.40;;;;;;;;;;4967507;28;20211;-89
2022/08/19 13:01:32;;;;;;;2.83;2.40;;;;;;;;;;4966940;28;20210;-89
2022/08/19 13:04:51;;;;;;;4.23;3.47;;;;;;;;;;4956397;28;20191;-89
2022/08/19 13:08:38;;;;;;;3.77;3.23;;;;;;;;;;4957611;28;20172;-89
2022/08/19 13:11:52;;;;;;;3.47;3.17;;;;;;;;;;4956292;28;20187;-89
2022/08/19 13:15:59;;;;;;;4.07;2.80;;;;;;;;;;4958297;28;20183;-88
2022/08/19 13:25:17;;;;;;;5.70;2.03;;;;;;;;;;4958954;28;20191;-88
2022/08/19 13:35:25;;;;;;;3.13;2.90;;;;;;;;;;4965974;28;20183;-86
2022/08/19 13:38:30;;;;;;;2.50;2.30;;;;;;;;;;4965778;28;20214;-87
2022/08/19 13:41:34;;;;;;;3.00;2.80;;;;;;;;;;4955067;28;20183;-87
2022/08/19 13:44:39;;;;;;;2.27;2.07;;;;;;;;;;4955083;28;20606;-87
2022/08/19 13:47:45;;;;;;;2.67;2.40;;;;;;;;;;4965471;28;20221;-87
2022/08/19 13:50:49;;;;;;;2.57;2.37;;;;;;;;;;4966059;28;20519;-87
2022/08/19 13:53:55;;;;;;;3.27;2.97;;;;;;;;;;4966197;28;20199;-87
2022/08/19 13:56:58;;;;;;;4.37;3.27;;;;;;;;;;4975782;28;20227;-87
2022/08/19 14:00:04;;;;;;;6.23;5.63;;;;;;;;;;4954908;28;20187;-87
2022/08/19 14:03:17;;;;;;;5.87;5.37;;;;;;;;;;4966513;28;20206;-90
2022/08/19 14:18:35;;;;;;;9.57;8.63;;;;;;;;;;4956189;28;20649;-89
2022/08/19 14:28:42;;;;;;;9.83;8.60;;;;;;;;;;4960768;28;20203;-89
2022/08/19 14:31:52;;;;;;;11.50;7.87;;;;;;;;;;4946810;28;20214;-89
2022/08/19 14:35:56;;;;;;;8.80;8.00;;;;;;;;;;4981480;28;20207;-89
2022/08/19 14:39:09;;;;;;;8.50;7.73;;;;;;;;;;4959469;28;20693;-89
2022/08/19 14:42:16;;;;;;;11.40;10.10;;;;;;;;;;4958910;28;20500;-89
2022/08/19 14:45:23;;;;;;;10.97;9.83;;;;;;;;;;4969713;28;20661;-88
2022/08/19 14:48:36;;;;;;;12.03;10.87;;;;;;;;;;4959431;28;20183;-89
2022/08/19 14:51:45;;;;;;;12.43;11.23;;;;;;;;;;4958025;28;20190;-89
2022/08/19 14:55:12;;;;;;;12.70;11.27;;;;;;;;;;4979736;28;20187;-89
2022/08/19 14:58:56;;;;;;;12.77;11.47;;;;;;;;;;4968497;28;20226;-89
2022/08/19 15:01:54;;;;;;;12.70;11.50;;;;;;;;;;4968835;28;20190;-90
2022/08/19 15:04:59;;;;;;;14.33;12.83;;;;;;;;;;4958295;28;20183;-89
2022/08/19 15:17:46;;;;;;;19.73;14.67;;;;;;;;;;5000825;22;20239;-79
2022/08/19 15:20:50;;;;;;;19.83;16.57;;;;;;;;;;4998725;28;20613;-79
2022/08/19 15:23:57;;;;;;;19.60;17.50;;;;;;;;;;4986495;28;20210;-79
2022/08/19 15:27:02;;;;;;;20.10;17.33;;;;;;;;;;4986863;28;20542;-79
2022/08/19 15:30:08;;;;;;;23.57;19.50;;;;;;;;;;5009308;28;20687;-80
2022/08/19 15:33:14;;;;;;;23.67;21.13;;;;;;;;;;4986653;28;20683;-78
2022/08/19 15:36:18;;;;;;;22.87;19.90;;;;;;;;;;4997791;28;20186;-78
2022/08/19 15:39:22;;;;;;;23.97;21.00;;;;;;;;;;4975830;28;20190;-78
2022/08/19 15:42:26;;;;;;;26.47;21.33;;;;;;;;;;4998662;28;20604;-79
2022/08/19 15:45:31;;;;;;;24.33;20.77;;;;;;;;;;4989027;28;20189;-81
2022/08/19 15:48:37;;;;;;;25.90;20.70;;;;;;;;;;4990194;28;20177;-80
2022/08/19 15:51:44;;;;;;;22.70;20.23;;;;;;;;;;4986661;28;20225;-79
2022/08/19 15:54:48;;;;;;;24.67;19.87;;;;;;;;;;4988231;28;20181;-79
2022/08/19 16:08:00;;;;;;;22.20;19.80;;;;;;;;;;4986681;28;20185;-79
2022/08/19 16:11:04;;;;;;;25.43;19.10;;;;;;;;;;4985343;28;20225;-78
2022/08/19 16:14:08;;;;;;;21.77;18.40;;;;;;;;;;4985154;28;20568;-78
2022/08/19 16:17:12;;;;;;;23.03;18.77;;;;;;;;;;4985172;28;20228;-78
2022/08/19 16:20:18;;;;;;;18.57;16.70;;;;;;;;;;4984270;28;20209;-79
2022/08/19 16:23:22;;;;;;;19.50;17.40;;;;;;;;;;4985239;28;20197;-78
2022/08/19 16:26:29;;;;;;;20.23;17.10;;;;;;;;;;4986167;28;20189;-79
2022/08/19 16:29:35;;;;;;;20.30;16.77;;;;;;;;;;4986632;28;20181;-79
2022/08/19 16:32:42;;;;;;;17.00;15.20;;;;;;;;;;4974836;28;20571;-79
2022/08/19 16:35:46;;;;;;;15.87;14.17;;;;;;;;;;4996107;28;20189;-78
2022/08/19 16:38:52;;;;;;;14.40;12.90;;;;;;;;;;4984837;28;20213;-79
2022/08/19 16:41:56;;;;;;;14.40;12.93;;;;;;;;;;4997101;28;20233;-79
2022/08/19 16:45:00;;;;;;;14.73;13.13;;;;;;;;;;4974184;28;20538;-78
2022/08/19 16:48:06;;;;;;;13.03;11.23;;;;;;;;;;4985016;28;20641;-78
2022/08/19 16:51:12;;;;;;;12.37;11.07;;;;;;;;;;4984533;28;20616;-78
2022/08/19 16:54:17;;;;;;;10.30;9.30;;;;;;;;;;4997979;28;20557;-79
2022/08/19 16:57:22;;;;;;;10.40;8.83;;;;;;;;;;4974670;28;20190;-78
2022/08/19 17:00:26;;;;;;;9.40;8.10;;;;;;;;;;4985515;28;20182;-78
2022/08/19 17:03:32;;;;;;;9.50;8.50;;;;;;;;;;4984268;28;20198;-79
2022/08/19 17:06:38;;;;;;;8.07;7.27;;;;;;;;;;4995602;28;20179;-78
2022/08/19 17:09:42;;;;;;;8.17;7.37;;;;;;;;;;4983539;28;20201;-79
2022/08/19 17:12:47;;;;;;;7.90;7.10;;;;;;;;;;4973040;28;20654;-79
2022/08/19 17:15:51;;;;;;;6.80;6.10;;;;;;;;;;4973137;28;20205;-78
2022/08/19 17:18:57;;;;;;;6.57;5.97;;;;;;;;;;4984097;28;20206;-79
2022/08/19 17:22:01;;;;;;;5.57;5.07;;;;;;;;;;4995040;28;20222;-78
2022/08/19 17:25:06;;;;;;;5.43;4.97;;;;;;;;;;4983881;28;20183;-80
2022/08/19 17:28:17;;;;;;;5.13;4.63;;;;;;;;;;4996020;28;20178;-79
2022/08/19 17:31:25;;;;;;;6.10;4.53;;;;;;;;;;4998070;28;20222;-80
2022/08/19 17:34:29;;;;;;;4.03;3.73;;;;;;;;;;4978096;28;20178;-79
2022/08/19 17:37:34;;;;;;;4.30;3.90;;;;;;;;;;4989942;28;20182;-81
2022/08/19 17:40:40;;;;;;;5.93;3.87;;;;;;;;;;5001112;28;20218;-79
2022/08/19 17:43:44;;;;;;;4.10;3.80;;;;;;;;;;5000136;28;20178;-79
2022/08/19 17:46:49;;;;;;;6.13;3.97;;;;;;;;;;4988391;28;20182;-81
2022/08/19 17:49:53;;;;;;;4.17;3.63;;;;;;;;;;5001136;28;20186;-80
2022/08/19 17:52:59;;;;;;;4.63;3.80;;;;;;;;;;4988454;28;20191;-78
2022/08/19 17:56:03;;;;;;;3.57;3.27;;;;;;;;;;4988828;28;20182;-80
2022/08/19 17:59:08;;;;;;;5.57;3.63;;;;;;;;;;5001127;28;20202;-80
2022/08/19 18:02:12;;;;;;;4.30;3.90;;;;;;;;;;5000061;28;20225;-80
2022/08/19 18:05:18;;;;;;;4.47;3.97;;;;;;;;;;4999677;28;20182;-79
2022/08/19 18:08:22;;;;;;;5.27;4.27;;;;;;;;;;4980192;28;20175;-80
2022/08/19 18:11:27;;;;;;;6.03;5.53;;;;;;;;;;4980731;28;20214;-81
2022/08/19 18:14:33;;;;;;;8.23;5.90;;;;;;;;;;4980682;28;20174;-81
2022/08/19 18:17:37;;;;;;;8.00;6.17;;;;;;;;;;4980724;28;20206;-81
2022/08/19 18:20:43;;;;;;;7.83;6.77;;;;;;;;;;4979572;28;20222;-80
2022/08/19 18:23:47;;;;;;;6.93;5.97;;;;;;;;;;4980828;28;20187;-80
2022/08/19 18:26:52;;;;;;;6.40;5.67;;;;;;;;;;4980721;28;20557;-81
2022/08/19 18:29:58;;;;;;;5.40;4.90;;;;;;;;;;4991941;28;20622;-80
2022/08/19 18:33:12;;;;;;;7.07;5.87;;;;;;;;;;4980745;28;20179;-82
2022/08/19 18:36:16;;;;;;;5.37;4.93;;;;;;;;;;4969282;28;20183;-81
2022/08/19 18:49:32;;;;;;;3.00;2.63;;;;;;;;;;4978059;28;20179;-77
2022/08/19 18:52:36;;;;;;;3.33;2.20;;;;;;;;;;4964413;28;20223;-78
2022/08/19 18:55:40;;;;;;;4.00;2.10;;;;;;;;;;4976845;28;20179;-78
2022/08/19 18:58:44;;;;;;;2.97;1.90;;;;;;;;;;4965163;28;20198;-78
2022/08/19 19:01:51;;;;;;;8.80;2.23;;;;;;;;;;4975424;28;20555;-76
2022/08/19 19:04:55;;;;;;;3.43;1.93;;;;;;;;;;4953709;28;20179;-78
2022/08/19 19:08:00;;;;;;;5.37;2.80;;;;;;;;;;4975931;28;20203;-77
2022/08/19 19:11:05;;;;;;;6.87;4.27;;;;;;;;;;4965360;28;20229;-78
2022/08/19 19:14:10;;;;;;;7.63;4.30;;;;;;;;;;4976254;28;20187;-77
2022/08/19 19:17:15;;;;;;;4.50;3.93;;;;;;;;;;4986027;28;20206;-77
2022/08/19 19:20:19;;;;;;;5.37;4.37;;;;;;;;;;4977081;28;20167;-80
2022/08/19 19:23:23;;;;;;;5.97;4.43;;;;;;;;;;4979538;28;20191;-80
2022/08/19 19:26:27;;;;;;;5.87;5.30;;;;;;;;;;4979951;28;20182;-81
2022/08/19 19:29:34;;;;;;;6.00;5.40;;;;;;;;;;4980018;28;20519;-80
2022/08/19 19:32:39;;;;;;;5.57;5.03;;;;;;;;;;4978670;28;20215;-81